createdAt,value
2019-03-10T00:00:37.034Z,85.19
2019-03-10T00:03:06.432Z,84.65
2019-03-10T00:05:35.869Z,84.93
2019-03-10T00:08:07.749Z,85.01
2019-03-10T00:10:36.425Z,82.22
2019-03-10T00:13:05.829Z,83.05
2019-03-10T00:15:35.258Z,83.00
2019-03-10T00:18:04.696Z,84.07
2019-03-10T00:20:34.128Z,84.62
2019-03-10T00:23:03.528Z,84.48
2019-03-10T00:25:32.975Z,84.39
2019-03-10T00:28:02.384Z,83.24
2019-03-10T00:30:31.820Z,83.83
2019-03-10T00:33:01.224Z,83.95
2019-03-10T00:35:30.749Z,83.35
2019-03-10T00:38:00.158Z,82.19
2019-03-10T00:40:54.384Z,82.74
2019-03-10T00:43:43.205Z,82.25
2019-03-10T00:46:32.126Z,80.75
2019-03-10T00:49:24.092Z,81.59
2019-03-10T00:52:14.463Z,81.86
2019-03-10T00:54:43.792Z,80.99
2019-03-10T00:57:13.335Z,80.98
2019-03-10T00:59:42.671Z,80.43
2019-03-10T01:02:12.042Z,79.47
2019-03-10T01:04:41.378Z,79.22
2019-03-10T01:07:10.738Z,80.53
2019-03-10T01:09:40.144Z,79.84
2019-03-10T01:12:09.511Z,79.10
2019-03-10T01:14:38.861Z,78.99
2019-03-10T01:17:08.225Z,79.26
2019-03-10T01:19:37.624Z,79.15
2019-03-10T01:22:06.982Z,79.46
2019-03-10T01:24:36.319Z,79.18
2019-03-10T01:27:05.753Z,79.33
2019-03-10T01:29:35.149Z,79.74
2019-03-10T01:32:33.134Z,77.72
2019-03-10T01:35:11.341Z,78.72
2019-03-10T01:37:40.765Z,78.88
2019-03-10T01:40:10.102Z,79.27
2019-03-10T01:42:39.486Z,78.43
2019-03-10T01:45:11.460Z,79.02
2019-03-10T01:47:40.883Z,78.57
2019-03-10T01:50:12.528Z,78.07
2019-03-10T01:52:41.849Z,78.21
2019-03-10T01:55:11.727Z,76.73
2019-03-10T01:57:41.166Z,77.92
2019-03-10T02:00:15.653Z,78.05
2019-03-10T02:02:44.982Z,77.53
2019-03-10T02:05:14.417Z,77.95
2019-03-10T02:07:43.750Z,77.35
2019-03-10T02:10:13.183Z,77.58
2019-03-10T02:12:42.519Z,76.78
2019-03-10T02:15:14.017Z,77.73
2019-03-10T02:17:43.349Z,78.22
2019-03-10T02:20:17.278Z,76.93
2019-03-10T02:22:46.609Z,76.25
2019-03-10T02:25:15.962Z,76.40
2019-03-10T02:27:45.294Z,76.95
2019-03-10T02:30:16.301Z,76.57
2019-03-10T02:32:45.630Z,77.27
2019-03-10T02:35:15.015Z,77.49
2019-03-10T02:37:44.387Z,76.96
2019-03-10T02:40:13.747Z,76.68
2019-03-10T02:42:43.082Z,77.30
2019-03-10T02:45:12.444Z,76.41
2019-03-10T02:47:41.775Z,76.74
2019-03-10T02:50:11.142Z,77.07
2019-03-10T02:52:40.643Z,77.06
2019-03-10T02:55:10.096Z,76.86
2019-03-10T02:57:39.401Z,77.22
2019-03-10T03:00:13.561Z,75.97
2019-03-10T03:02:42.954Z,76.69
2019-03-10T03:05:12.312Z,76.34
2019-03-10T03:07:41.656Z,76.96
2019-03-10T03:10:14.380Z,77.61
2019-03-10T03:12:43.780Z,77.50
2019-03-10T03:15:13.151Z,77.15
2019-03-10T03:17:42.537Z,76.64
2019-03-10T03:20:12.746Z,77.04
2019-03-10T03:22:42.217Z,76.45
2019-03-10T03:25:12.126Z,76.72
2019-03-10T03:27:41.455Z,76.97
2019-03-10T03:30:18.330Z,77.16
2019-03-10T03:32:47.898Z,77.10
2019-03-10T03:35:48.442Z,77.40
2019-03-10T03:38:26.862Z,77.50
2019-03-10T03:41:02.160Z,77.51
2019-03-10T03:43:31.586Z,77.26
2019-03-10T03:46:00.954Z,77.33
2019-03-10T03:48:30.495Z,76.84
2019-03-10T03:50:59.926Z,76.89
2019-03-10T03:53:29.335Z,76.52
2019-03-10T03:55:58.703Z,76.52
2019-03-10T03:58:28.120Z,76.63
2019-03-10T04:01:04.863Z,76.48
2019-03-10T04:03:34.220Z,75.92
2019-03-10T04:06:03.646Z,76.35
2019-03-10T04:08:33.058Z,75.98
2019-03-10T04:11:02.433Z,76.27
2019-03-10T04:13:31.909Z,76.56
2019-03-10T04:16:01.337Z,75.70
2019-03-10T04:18:30.767Z,75.87
2019-03-10T04:21:00.174Z,76.40
2019-03-10T04:23:29.579Z,76.89
2019-03-10T04:25:58.946Z,76.97
2019-03-10T04:28:28.287Z,76.85
2019-03-10T04:30:57.717Z,77.44
2019-03-10T04:33:27.122Z,77.38
2019-03-10T04:35:56.684Z,77.88
2019-03-10T04:38:26.303Z,78.14
2019-03-10T04:40:55.661Z,78.37
2019-03-10T04:43:25.073Z,77.65
2019-03-10T04:45:54.500Z,78.43
2019-03-10T04:48:23.829Z,78.66
2019-03-10T04:50:53.185Z,78.84
2019-03-10T04:53:22.518Z,78.96
2019-03-10T04:55:56.156Z,79.04
2019-03-10T04:58:26.065Z,79.15
2019-03-10T05:00:57.121Z,79.85
2019-03-10T05:03:26.452Z,79.49
2019-03-10T05:05:55.808Z,79.69
2019-03-10T05:08:25.218Z,79.41
2019-03-10T05:10:54.590Z,79.79
2019-03-10T05:13:23.928Z,79.77
2019-03-10T05:15:53.286Z,79.19
2019-03-10T05:18:22.650Z,80.13
2019-03-10T05:20:51.976Z,79.58
2019-03-10T05:23:38.480Z,79.43
2019-03-10T05:26:07.829Z,79.74
2019-03-10T05:28:43.302Z,79.81
2019-03-10T05:31:12.673Z,79.59
2019-03-10T05:33:42.004Z,79.78
2019-03-10T05:36:11.364Z,79.59
2019-03-10T05:38:40.722Z,79.71
2019-03-10T05:41:10.154Z,79.76
2019-03-10T05:43:39.524Z,79.86
2019-03-10T05:46:08.856Z,79.69
2019-03-10T05:48:38.210Z,79.76
2019-03-10T05:51:09.058Z,79.70
2019-03-10T05:53:39.985Z,79.62
2019-03-10T05:56:09.312Z,78.62
2019-03-10T05:58:38.738Z,77.97
2019-03-10T06:01:08.171Z,78.67
2019-03-10T06:03:37.530Z,78.47
2019-03-10T06:06:06.863Z,78.83
2019-03-10T06:08:36.238Z,78.62
2019-03-10T06:11:05.562Z,78.54
2019-03-10T06:13:34.926Z,78.60
2019-03-10T06:16:04.254Z,78.78
2019-03-10T06:18:33.621Z,78.62
2019-03-10T06:21:02.953Z,77.94
2019-03-10T06:23:32.313Z,77.88
2019-03-10T06:26:01.718Z,78.17
2019-03-10T06:28:31.157Z,77.39
2019-03-10T06:31:00.565Z,77.89
2019-03-10T06:33:29.918Z,77.84
2019-03-10T06:35:59.322Z,77.39
2019-03-10T06:38:28.774Z,77.06
2019-03-10T06:40:58.174Z,76.64
2019-03-10T06:43:27.532Z,76.75
2019-03-10T06:45:56.932Z,76.62
2019-03-10T06:48:26.285Z,76.72
2019-03-10T06:50:55.623Z,75.87
2019-03-10T06:53:25.049Z,75.66
2019-03-10T06:55:54.385Z,75.95
2019-03-10T06:58:23.740Z,75.19
2019-03-10T07:00:53.070Z,75.22
2019-03-10T07:03:22.429Z,75.23
2019-03-10T07:05:51.761Z,75.54
2019-03-10T07:08:21.117Z,75.41
2019-03-10T07:10:50.453Z,75.75
2019-03-10T07:13:19.882Z,76.68
2019-03-10T07:15:49.216Z,75.41
2019-03-10T07:18:18.645Z,75.69
2019-03-10T07:20:48.061Z,75.53
2019-03-10T07:23:18.483Z,75.76
2019-03-10T07:25:49.449Z,75.04
2019-03-10T07:28:23.160Z,75.18
2019-03-10T07:31:06.290Z,75.29
2019-03-10T07:33:42.784Z,74.32
2019-03-10T07:36:13.729Z,73.94
2019-03-10T07:38:56.633Z,73.52
2019-03-10T07:41:36.569Z,74.00
2019-03-10T07:44:10.461Z,73.66
2019-03-10T07:46:57.594Z,73.26
2019-03-10T07:49:31.503Z,74.15
2019-03-10T07:52:19.795Z,72.46
2019-03-10T07:54:46.709Z,72.79
2019-03-10T07:57:20.702Z,72.33
2019-03-10T08:00:07.613Z,71.64
2019-03-10T08:02:38.609Z,72.23
2019-03-10T08:05:09.597Z,72.12
2019-03-10T08:07:49.353Z,70.70
2019-03-10T08:10:26.041Z,70.41
2019-03-10T08:12:57.086Z,70.27
2019-03-10T08:15:44.186Z,70.48
2019-03-10T08:18:30.053Z,71.43
2019-03-10T08:21:16.718Z,70.65
2019-03-10T08:23:47.696Z,69.98
2019-03-10T08:26:21.629Z,69.78
2019-03-10T08:29:08.766Z,69.72
2019-03-10T08:31:42.311Z,68.04
2019-03-10T08:34:25.485Z,67.41
2019-03-10T08:36:56.482Z,68.02
2019-03-10T08:39:33.392Z,67.19
2019-03-10T08:42:20.593Z,65.40
2019-03-10T08:44:51.508Z,65.55
2019-03-10T08:47:31.220Z,65.15
2019-03-10T08:50:11.244Z,65.09
2019-03-10T08:52:48.314Z,64.48
2019-03-10T08:55:19.363Z,65.01
2019-03-10T08:57:53.387Z,63.05
2019-03-10T09:00:42.501Z,63.86
2019-03-10T09:03:19.226Z,62.96
2019-03-10T09:06:05.024Z,60.61
2019-03-10T09:08:47.597Z,58.67
2019-03-10T09:11:31.246Z,58.58
2019-03-10T09:14:07.762Z,56.15
2019-03-10T09:16:44.891Z,56.10
2019-03-10T09:19:27.787Z,55.93
2019-03-10T09:22:00.223Z,53.27
2019-03-10T09:24:49.990Z,50.53
2019-03-10T09:27:23.909Z,50.74
2019-03-10T09:30:03.505Z,48.49
2019-03-10T09:32:46.663Z,46.00
2019-03-10T09:35:20.302Z,46.65
2019-03-10T09:37:53.958Z,47.48
2019-03-10T09:40:33.530Z,50.55
2019-03-10T09:43:19.614Z,50.90
2019-03-10T09:45:50.606Z,52.02
2019-03-10T09:48:24.627Z,53.87
2019-03-10T09:51:13.431Z,51.55
2019-03-10T09:53:59.566Z,53.20
2019-03-10T09:56:46.759Z,51.63
2019-03-10T09:59:17.734Z,53.65
2019-03-10T10:01:51.706Z,54.10
2019-03-10T10:04:31.625Z,57.00
2019-03-10T10:07:11.542Z,57.97
2019-03-10T10:09:42.580Z,57.88
2019-03-10T10:12:19.549Z,58.14
2019-03-10T10:15:06.516Z,59.48
2019-03-10T10:17:52.386Z,58.92
2019-03-10T10:20:38.388Z,58.96
2019-03-10T10:23:12.046Z,58.18
2019-03-10T10:25:43.019Z,59.88
2019-03-10T10:28:30.113Z,60.58
2019-03-10T10:31:13.994Z,60.27
2019-03-10T10:33:47.727Z,59.86
2019-03-10T10:36:21.396Z,58.58
2019-03-10T10:39:01.390Z,59.83
2019-03-10T10:41:44.671Z,59.84
2019-03-10T10:44:30.273Z,58.93
2019-03-10T10:47:13.483Z,57.09
2019-03-10T10:49:50.449Z,56.01
2019-03-10T10:52:27.118Z,57.11
2019-03-10T10:55:01.365Z,57.91
2019-03-10T10:57:32.562Z,55.70
2019-03-10T11:00:06.441Z,56.26
2019-03-10T11:02:37.451Z,57.92
2019-03-10T11:05:21.545Z,57.38
2019-03-10T11:07:58.298Z,57.95
2019-03-10T11:10:31.778Z,57.53
2019-03-10T11:13:14.685Z,57.20
2019-03-10T11:16:00.519Z,56.09
2019-03-10T11:18:40.672Z,55.19
2019-03-10T11:21:11.637Z,55.18
2019-03-10T11:23:58.857Z,54.77
2019-03-10T11:26:32.814Z,55.59
2019-03-10T11:29:09.564Z,55.42
2019-03-10T11:31:40.607Z,53.38
2019-03-10T11:34:23.704Z,51.28
2019-03-10T11:37:10.688Z,53.43
2019-03-10T11:39:41.690Z,54.55
2019-03-10T11:42:15.404Z,53.13
2019-03-10T11:44:46.417Z,53.11
2019-03-10T11:47:17.385Z,53.54
2019-03-10T11:49:48.395Z,53.85
2019-03-10T11:52:22.309Z,53.86
2019-03-10T11:54:53.390Z,55.79
2019-03-10T11:57:24.358Z,54.78
2019-03-10T11:59:55.453Z,55.40
2019-03-10T12:02:29.218Z,55.12
2019-03-10T12:05:12.155Z,55.35
2019-03-10T12:07:45.818Z,54.27
2019-03-10T12:10:15.250Z,55.38
2019-03-10T12:12:44.659Z,54.77
2019-03-10T12:15:14.327Z,55.70
2019-03-10T12:17:43.657Z,55.30
2019-03-10T12:20:13.591Z,55.15
2019-03-10T12:22:43.018Z,56.21
2019-03-10T12:25:13.596Z,55.43
2019-03-10T12:27:43.022Z,55.21
2019-03-10T12:30:16.211Z,55.68
2019-03-10T12:32:45.672Z,55.88
2019-03-10T12:35:15.011Z,55.33
2019-03-10T12:37:44.373Z,54.97
2019-03-10T12:40:13.707Z,55.61
2019-03-10T12:42:43.086Z,53.79
2019-03-10T12:45:12.487Z,54.51
2019-03-10T12:47:42.116Z,53.96
2019-03-10T12:50:12.974Z,55.34
2019-03-10T12:52:42.333Z,52.95
2019-03-10T12:55:11.729Z,53.14
2019-03-10T12:57:41.161Z,53.48
2019-03-10T13:00:13.677Z,52.26
2019-03-10T13:02:43.137Z,53.29
2019-03-10T13:05:12.470Z,54.52
2019-03-10T13:07:41.995Z,55.81
2019-03-10T13:10:12.727Z,51.10
2019-03-10T13:12:42.322Z,50.13
2019-03-10T13:15:12.463Z,51.60
2019-03-10T13:17:41.886Z,53.54
2019-03-10T13:20:11.962Z,50.50
2019-03-10T13:22:42.834Z,49.17
2019-03-10T13:25:13.006Z,48.05
2019-03-10T13:27:42.361Z,48.61
2019-03-10T13:30:13.535Z,49.96
2019-03-10T13:32:44.360Z,51.51
2019-03-10T13:35:13.984Z,53.52
2019-03-10T13:37:43.410Z,56.07
2019-03-10T13:40:14.188Z,58.70
2019-03-10T13:42:43.545Z,60.89
2019-03-10T13:45:15.249Z,63.48
2019-03-10T13:47:44.692Z,63.70
2019-03-10T13:50:17.371Z,66.34
2019-03-10T13:52:46.746Z,67.52
2019-03-10T13:55:16.082Z,65.90
2019-03-10T13:57:45.457Z,64.72
2019-03-10T14:00:21.184Z,65.50
2019-03-10T14:02:50.830Z,66.09
2019-03-10T14:05:20.238Z,69.62
2019-03-10T14:07:49.598Z,70.11
2019-03-10T14:10:18.939Z,72.52
2019-03-10T14:12:48.294Z,72.26
2019-03-10T14:15:17.772Z,73.18
2019-03-10T14:17:47.202Z,72.61
2019-03-10T14:20:17.030Z,72.26
2019-03-10T14:22:46.488Z,75.83
2019-03-10T14:25:16.161Z,73.92
2019-03-10T14:27:45.517Z,74.16
2019-03-10T14:30:20.971Z,74.75
2019-03-10T14:32:50.403Z,76.36
2019-03-10T14:35:19.739Z,77.29
2019-03-10T14:37:49.166Z,76.82
2019-03-10T14:40:19.814Z,78.05
2019-03-10T14:42:49.252Z,78.48
2019-03-10T14:45:19.031Z,78.23
2019-03-10T14:47:48.411Z,77.42
2019-03-10T14:50:18.482Z,78.33
2019-03-10T14:52:47.920Z,77.11
2019-03-10T14:55:19.863Z,78.49
2019-03-10T14:57:49.291Z,78.81
2019-03-10T15:00:21.437Z,80.33
2019-03-10T15:02:50.872Z,79.76
2019-03-10T15:05:20.289Z,78.81
2019-03-10T15:07:49.723Z,80.47
2019-03-10T15:10:19.133Z,78.19
2019-03-10T15:12:48.512Z,78.86
2019-03-10T15:15:23.035Z,80.45
2019-03-10T15:17:52.491Z,79.08
2019-03-10T15:20:22.138Z,79.58
2019-03-10T15:22:51.522Z,79.71
2019-03-10T15:25:21.906Z,78.69
2019-03-10T15:27:51.320Z,79.21
2019-03-10T15:30:24.336Z,80.03
2019-03-10T15:32:53.738Z,80.83
2019-03-10T15:35:23.122Z,80.92
2019-03-10T15:37:52.532Z,80.98
2019-03-10T15:40:21.966Z,81.21
2019-03-10T15:42:51.372Z,81.14
2019-03-10T15:45:20.735Z,80.85
2019-03-10T15:47:50.151Z,81.30
2019-03-10T15:50:25.331Z,80.79
2019-03-10T15:52:54.743Z,80.68
2019-03-10T15:55:24.115Z,80.70
2019-03-10T15:57:53.456Z,80.72
2019-03-10T16:00:24.327Z,79.37
2019-03-10T16:02:53.694Z,79.43
2019-03-10T16:05:23.123Z,80.37
2019-03-10T16:07:52.527Z,80.80
2019-03-10T16:10:21.960Z,81.61
2019-03-10T16:12:51.324Z,82.35
2019-03-10T16:15:31.449Z,84.22
2019-03-10T16:18:00.865Z,82.93
2019-03-10T16:20:30.326Z,82.02
2019-03-10T16:22:59.852Z,82.86
2019-03-10T16:25:29.231Z,82.47
2019-03-10T16:27:58.596Z,82.26
2019-03-10T16:30:29.191Z,83.68
2019-03-10T16:32:58.612Z,83.78
2019-03-10T16:35:28.138Z,83.67
2019-03-10T16:37:57.546Z,83.97
2019-03-10T16:40:26.917Z,84.45
2019-03-10T16:42:56.350Z,84.79
2019-03-10T16:45:26.604Z,84.24
2019-03-10T16:47:57.678Z,84.05
2019-03-10T16:50:28.094Z,83.83
2019-03-10T16:52:57.514Z,84.05
2019-03-10T16:55:26.945Z,84.12
2019-03-10T16:57:56.290Z,83.87
2019-03-10T17:00:26.252Z,83.53
2019-03-10T17:02:55.919Z,83.50
2019-03-10T17:05:25.358Z,83.91
2019-03-10T17:07:54.764Z,84.32
2019-03-10T17:10:26.311Z,84.54
2019-03-10T17:12:55.723Z,84.51
2019-03-10T17:15:25.596Z,84.36
2019-03-10T17:17:55.019Z,84.23
2019-03-10T17:20:24.393Z,84.35
2019-03-10T17:22:53.747Z,84.17
2019-03-10T17:25:23.180Z,84.11
2019-03-10T17:27:52.524Z,84.26
2019-03-10T17:30:22.517Z,84.46
2019-03-10T17:32:51.857Z,83.73
2019-03-10T17:35:21.564Z,84.50
2019-03-10T17:37:51.075Z,83.84
2019-03-10T17:40:23.823Z,83.92
2019-03-10T17:42:53.370Z,83.88
2019-03-10T17:45:23.673Z,84.60
2019-03-10T17:47:53.087Z,84.41
2019-03-10T17:50:22.453Z,84.69
2019-03-10T17:52:51.787Z,85.40
2019-03-10T17:55:23.156Z,85.66
2019-03-10T17:57:52.499Z,85.25
2019-03-10T18:00:23.669Z,85.75
2019-03-10T18:02:53.007Z,85.54
2019-03-10T18:05:22.371Z,85.30
2019-03-10T18:07:51.718Z,85.74
2019-03-10T18:10:21.084Z,86.05
2019-03-10T18:12:50.489Z,86.17
2019-03-10T18:15:19.875Z,85.86
2019-03-10T18:17:49.234Z,85.84
2019-03-10T18:20:24.973Z,85.64
2019-03-10T18:22:54.321Z,86.33
2019-03-10T18:25:23.784Z,86.31
2019-03-10T18:27:53.196Z,86.50
2019-03-10T18:30:28.297Z,86.44
2019-03-10T18:32:57.709Z,86.37
2019-03-10T18:35:28.787Z,86.27
2019-03-10T18:37:58.207Z,86.86
2019-03-10T18:40:28.229Z,86.83
2019-03-10T18:42:57.648Z,86.76
2019-03-10T18:45:27.412Z,86.89
2019-03-10T18:47:56.913Z,87.21
2019-03-10T18:50:27.199Z,87.31
2019-03-10T18:52:56.624Z,87.26
2019-03-10T18:55:26.177Z,87.45
2019-03-10T18:57:57.091Z,87.16
2019-03-10T19:00:31.665Z,87.42
2019-03-10T19:03:01.623Z,87.66
2019-03-10T19:05:31.138Z,87.47
2019-03-10T19:08:00.619Z,87.61
2019-03-10T19:10:30.165Z,87.27
2019-03-10T19:12:59.579Z,87.16
2019-03-10T19:15:29.204Z,87.34
2019-03-10T19:17:58.582Z,87.08
2019-03-10T19:20:27.923Z,87.23
2019-03-10T19:22:57.304Z,87.21
2019-03-10T19:25:26.808Z,87.48
2019-03-10T19:27:56.333Z,87.17
2019-03-10T19:30:25.677Z,87.23
2019-03-10T19:32:55.044Z,87.40
2019-03-10T19:35:24.488Z,87.60
2019-03-10T19:37:53.864Z,87.70
2019-03-10T19:40:24.910Z,87.82
2019-03-10T19:42:54.277Z,87.60
2019-03-10T19:45:24.356Z,87.77
2019-03-10T19:47:53.742Z,88.10
2019-03-10T19:50:30.167Z,87.87
2019-03-10T19:52:59.620Z,87.92
2019-03-10T19:55:29.046Z,88.20
2019-03-10T19:57:58.493Z,87.82
2019-03-10T20:00:27.916Z,87.96
2019-03-10T20:02:57.351Z,87.96
2019-03-10T20:05:27.078Z,87.99
2019-03-10T20:07:56.548Z,88.16
2019-03-10T20:10:25.965Z,88.09
2019-03-10T20:12:55.410Z,87.90
2019-03-10T20:15:27.409Z,87.83
2019-03-10T20:17:56.947Z,87.89
2019-03-10T20:20:31.142Z,87.87
2019-03-10T20:23:01.275Z,88.28
2019-03-10T20:25:30.881Z,88.40
2019-03-10T20:28:00.314Z,87.99
2019-03-10T20:30:30.036Z,88.37
2019-03-10T20:32:59.410Z,88.53
2019-03-10T20:35:28.819Z,88.66
2019-03-10T20:37:58.255Z,88.33
2019-03-10T20:40:29.272Z,88.50
2019-03-10T20:42:58.718Z,88.35
2019-03-10T20:45:28.209Z,88.70
2019-03-10T20:47:57.661Z,88.18
2019-03-10T20:50:27.068Z,87.83
2019-03-10T20:52:56.433Z,88.22
2019-03-10T20:55:25.778Z,87.61
2019-03-10T20:57:55.223Z,87.62
2019-03-10T21:00:30.614Z,86.79
2019-03-10T21:03:00.055Z,86.72
2019-03-10T21:05:29.463Z,86.42
2019-03-10T21:07:59.220Z,86.87
2019-03-10T21:10:28.555Z,86.07
2019-03-10T21:12:57.913Z,86.48
2019-03-10T21:15:27.323Z,86.06
2019-03-10T21:17:57.015Z,87.05
2019-03-10T21:20:26.683Z,86.34
2019-03-10T21:22:56.204Z,86.17
2019-03-10T21:25:27.840Z,86.81
2019-03-10T21:27:57.476Z,86.92
2019-03-10T21:30:30.743Z,87.24
2019-03-10T21:33:00.098Z,87.92
2019-03-10T21:35:29.447Z,87.34
2019-03-10T21:37:59.265Z,87.19
2019-03-10T21:40:32.434Z,87.69
2019-03-10T21:43:01.871Z,87.99
2019-03-10T21:45:31.283Z,87.55
2019-03-10T21:48:00.714Z,88.18
2019-03-10T21:50:30.124Z,87.90
2019-03-10T21:52:59.565Z,88.48
2019-03-10T21:55:28.975Z,88.38
2019-03-10T21:57:58.407Z,87.99
2019-03-10T22:00:27.767Z,88.49
2019-03-10T22:02:57.417Z,88.63
2019-03-10T22:05:26.783Z,89.07
2019-03-10T22:07:56.117Z,88.30
2019-03-10T22:10:27.975Z,88.58
2019-03-10T22:12:56.982Z,88.80
2019-03-10T22:15:26.431Z,88.77
2019-03-10T22:17:55.773Z,88.78
2019-03-10T22:20:25.134Z,88.67
2019-03-10T22:22:54.474Z,88.62
2019-03-10T22:25:23.901Z,89.03
2019-03-10T22:27:53.233Z,89.14
2019-03-10T22:30:23.307Z,88.86
2019-03-10T22:32:52.711Z,88.93
2019-03-10T22:35:22.070Z,88.66
2019-03-10T22:37:51.396Z,89.10
2019-03-10T22:40:20.759Z,89.30
2019-03-10T22:42:50.092Z,89.38
2019-03-10T22:45:19.987Z,89.78
2019-03-10T22:47:49.393Z,90.21
2019-03-10T22:50:18.752Z,90.12
2019-03-10T22:52:48.156Z,90.00
2019-03-10T22:55:17.510Z,90.68
2019-03-10T22:57:46.842Z,90.56
2019-03-10T23:00:19.101Z,90.48
2019-03-10T23:02:48.498Z,90.73
2019-03-10T23:05:17.862Z,90.84
2019-03-10T23:07:47.258Z,91.05
2019-03-10T23:10:16.617Z,91.27
2019-03-10T23:12:45.954Z,91.07
2019-03-10T23:15:15.312Z,90.82
2019-03-10T23:17:44.716Z,90.83
2019-03-10T23:20:17.699Z,91.19
2019-03-10T23:22:47.040Z,91.13
2019-03-10T23:25:16.407Z,91.00
2019-03-10T23:27:45.738Z,91.56
2019-03-10T23:30:19.304Z,91.81
2019-03-10T23:32:48.626Z,91.73
2019-03-10T23:35:17.989Z,91.84
2019-03-10T23:37:47.322Z,91.92
2019-03-10T23:40:17.618Z,91.71
2019-03-10T23:42:47.025Z,91.46
2019-03-10T23:45:17.302Z,91.82
2019-03-10T23:47:46.690Z,91.56
2019-03-10T23:50:16.996Z,91.80
2019-03-10T23:52:46.399Z,91.43
2019-03-10T23:55:16.029Z,91.59
2019-03-10T23:57:45.437Z,91.64
